Time;durP1;ratioP1;P1;durP2;ratioP2;P2;SDS_P1;SDS_P2;PMS_P1;PMS_P2;Temp;Humidity;BMP_temperature;BMP_pressure;BME280_temperature;BME280_humidity;BME280_pressure;Samples;Min_cycle;Max_cycle;Signal;HPM_P1;HPM_P2
2021/04/10 00:01:53;;;;;;;;;;;13.80;55.00;;;;;;5009804;28;19970;-58
2021/04/10 00:04:19;;;;;;;;;;;13.80;55.00;;;;;;5015952;28;20552;-61
2021/04/10 00:06:44;;;;;;;;;;;13.80;55.10;;;;;;5002215;28;19917;-60
2021/04/10 00:09:10;;;;;;;;;;;13.80;55.20;;;;;;5010955;28;19917;-61
2021/04/10 00:11:35;;;;;;;;;;;13.80;55.20;;;;;;5005867;28;19925;-59
2021/04/10 00:14:04;;;;;;;;;;;13.70;55.30;;;;;;5006161;28;19921;-63
2021/04/10 00:16:30;;;;;;;;;;;13.70;55.30;;;;;;5011256;28;19917;-61
2021/04/10 00:18:55;;;;;;;;;;;13.70;55.30;;;;;;5000251;28;19918;-60
2021/04/10 00:21:21;;;;;;;;;;;13.70;55.50;;;;;;5005852;28;20327;-60
2021/04/10 00:23:46;;;;;;;;;;;13.70;55.40;;;;;;4996630;28;19929;-57
2021/04/10 00:26:12;;;;;;;;;;;13.60;55.40;;;;;;5014808;28;19909;-60
2021/04/10 00:28:37;;;;;;;;;;;13.60;55.40;;;;;;5015642;28;19925;-60
2021/04/10 00:31:09;;;;;;;;;;;13.60;55.50;;;;;;5009306;28;19917;-57
2021/04/10 00:33:35;;;;;;;;;;;13.60;55.50;;;;;;4993191;28;20350;-59
2021/04/10 00:36:00;;;;;;;;;;;13.60;55.50;;;;;;5007025;28;19917;-59
2021/04/10 00:38:27;;;;;;;;;;;13.60;55.60;;;;;;5004719;28;19925;-58
2021/04/10 00:40:52;;;;;;;;;;;13.60;55.70;;;;;;4998510;28;20373;-57
2021/04/10 00:43:18;;;;;;;;;;;13.60;55.70;;;;;;4999122;28;19921;-57
2021/04/10 00:45:43;;;;;;;;;;;13.50;55.70;;;;;;5017944;28;20125;-61
2021/04/10 00:48:09;;;;;;;;;;;13.50;55.70;;;;;;4998892;28;19964;-61
2021/04/10 00:50:34;;;;;;;;;;;13.50;55.80;;;;;;5008651;28;19909;-59
2021/04/10 00:52:59;;;;;;;;;;;13.50;55.80;;;;;;5009028;28;19913;-59
2021/04/10 00:55:25;;;;;;;;;;;13.50;56.00;;;;;;5023639;28;19910;-58
2021/04/10 00:57:51;;;;;;;;;;;13.50;56.00;;;;;;5012830;28;19914;-58
2021/04/10 01:00:19;;;;;;;;;;;13.40;56.00;;;;;;5022922;28;19914;-61
2021/04/10 01:02:45;;;;;;;;;;;13.40;56.00;;;;;;5007155;28;21733;-61
2021/04/10 01:05:10;;;;;;;;;;;13.40;56.00;;;;;;5017266;28;19913;-57
2021/04/10 01:07:36;;;;;;;;;;;13.40;56.10;;;;;;5011091;28;20369;-60
2021/04/10 01:10:01;;;;;;;;;;;13.40;56.10;;;;;;5018421;28;19913;-60
2021/04/10 01:12:53;;;;;;;;;;;13.40;56.20;;;;;;5006035;28;19914;-60
2021/04/10 01:15:27;;;;;;;;;;;13.40;56.30;;;;;;5008225;28;19922;-60
2021/04/10 01:17:55;;;;;;;;;;;13.40;56.30;;;;;;5023705;28;19917;-60
2021/04/10 01:20:29;;;;;;;;;;;13.30;56.40;;;;;;5027609;28;19920;-61
2021/04/10 01:22:55;;;;;;;;;;;13.30;56.40;;;;;;5016932;28;19917;-57
2021/04/10 01:25:26;;;;;;;;;;;13.30;56.40;;;;;;5022827;28;20386;-60
2021/04/10 01:27:54;;;;;;;;;;;13.30;56.50;;;;;;5045116;28;20024;-60
2021/04/10 01:30:20;;;;;;;;;;;13.30;56.60;;;;;;5041193;28;19920;-61
2021/04/10 01:32:48;;;;;;;;;;;13.30;56.60;;;;;;5015898;28;19917;-61
2021/04/10 01:35:14;;;;;;;;;;;13.20;56.60;;;;;;5014843;28;20317;-60
2021/04/10 01:37:41;;;;;;;;;;;13.20;56.60;;;;;;5025014;28;19925;-60
2021/04/10 01:40:06;;;;;;;;;;;13.20;56.70;;;;;;5039643;28;20388;-62
2021/04/10 01:42:32;;;;;;;;;;;13.30;56.80;;;;;;5023421;28;19964;-62
2021/04/10 01:44:58;;;;;;;;;;;13.20;56.70;;;;;;5026547;28;19924;-60
2021/04/10 01:47:23;;;;;;;;;;;13.20;56.80;;;;;;5027317;28;19990;-59
2021/04/10 01:49:49;;;;;;;;;;;13.20;56.80;;;;;;5012296;28;19971;-58
2021/04/10 01:52:14;;;;;;;;;;;13.20;57.00;;;;;;5009986;28;20365;-59
2021/04/10 01:54:40;;;;;;;;;;;13.20;56.90;;;;;;5027303;28;19914;-58
2021/04/10 01:57:06;;;;;;;;;;;13.10;57.00;;;;;;5004006;28;20416;-62
2021/04/10 01:59:31;;;;;;;;;;;13.10;57.00;;;;;;5027519;28;19971;-61
2021/04/10 02:01:57;;;;;;;;;;;13.10;57.10;;;;;;5002879;28;19918;-59
2021/04/10 02:04:22;;;;;;;;;;;13.10;57.10;;;;;;5017133;28;19914;-58
2021/04/10 02:06:48;;;;;;;;;;;13.10;57.10;;;;;;5019455;28;19952;-59
2021/04/10 02:09:13;;;;;;;;;;;13.10;57.20;;;;;;4999995;28;19917;-60
2021/04/10 02:11:41;;;;;;;;;;;13.10;57.20;;;;;;5009764;28;19917;-60
2021/04/10 02:14:07;;;;;;;;;;;13.10;57.30;;;;;;5026425;28;19925;-62
2021/04/10 02:16:32;;;;;;;;;;;13.00;57.30;;;;;;5011710;28;19922;-61
2021/04/10 02:18:59;;;;;;;;;;;13.10;57.30;;;;;;5029365;28;19910;-60
2021/04/10 02:21:26;;;;;;;;;;;13.10;57.30;;;;;;5007918;28;20281;-60
2021/04/10 02:23:52;;;;;;;;;;;13.00;57.40;;;;;;4999693;28;20374;-58
2021/04/10 02:26:18;;;;;;;;;;;13.00;57.40;;;;;;5000607;28;19917;-59
2021/04/10 02:28:43;;;;;;;;;;;13.00;57.40;;;;;;5002733;28;19909;-60
2021/04/10 02:31:08;;;;;;;;;;;13.00;57.50;;;;;;4996516;28;19913;-61
2021/04/10 02:33:40;;;;;;;;;;;12.90;57.50;;;;;;5014656;28;19914;-63
2021/04/10 02:36:06;;;;;;;;;;;13.00;57.50;;;;;;5011482;28;19980;-59
2021/04/10 02:38:32;;;;;;;;;;;13.00;57.60;;;;;;5014572;28;20408;-59
2021/04/10 02:41:06;;;;;;;;;;;12.90;57.60;;;;;;5030996;28;19913;-56
2021/04/10 02:43:31;;;;;;;;;;;12.90;57.60;;;;;;5015754;28;19937;-58
2021/04/10 02:45:58;;;;;;;;;;;12.90;57.70;;;;;;5016729;28;20370;-58
2021/04/10 02:48:24;;;;;;;;;;;12.90;57.70;;;;;;4998098;28;20007;-56
2021/04/10 02:50:50;;;;;;;;;;;12.90;57.70;;;;;;4995185;28;20012;-61
2021/04/10 02:53:15;;;;;;;;;;;12.90;57.70;;;;;;5010646;28;20961;-57
2021/04/10 02:55:43;;;;;;;;;;;12.90;57.80;;;;;;5024573;28;19965;-58
2021/04/10 02:58:11;;;;;;;;;;;12.90;57.80;;;;;;4995201;28;19968;-57
2021/04/10 03:00:37;;;;;;;;;;;12.90;57.90;;;;;;5009376;28;20304;-57
2021/04/10 03:03:03;;;;;;;;;;;12.80;57.80;;;;;;5018572;28;19920;-59
2021/04/10 03:05:28;;;;;;;;;;;12.80;57.90;;;;;;5012977;28;19921;-60
2021/04/10 03:07:54;;;;;;;;;;;12.80;57.90;;;;;;5023848;28;19913;-61
2021/04/10 03:10:19;;;;;;;;;;;12.80;57.90;;;;;;5018988;28;19914;-60
2021/04/10 03:12:45;;;;;;;;;;;12.80;58.10;;;;;;5025493;28;20285;-59
2021/04/10 03:15:14;;;;;;;;;;;12.80;58.10;;;;;;5020241;28;19985;-61
2021/04/10 03:17:40;;;;;;;;;;;12.80;58.10;;;;;;5022392;28;19916;-58
2021/04/10 03:20:06;;;;;;;;;;;12.80;58.10;;;;;;5023860;28;19914;-59
2021/04/10 03:22:31;;;;;;;;;;;12.70;58.10;;;;;;5020667;28;19949;-60
2021/04/10 03:24:57;;;;;;;;;;;12.70;58.20;;;;;;5020663;28;19913;-61
2021/04/10 03:27:22;;;;;;;;;;;12.70;58.20;;;;;;5012233;28;20426;-62
2021/04/10 03:29:48;;;;;;;;;;;12.70;58.30;;;;;;5025573;28;19913;-59
2021/04/10 03:32:13;;;;;;;;;;;12.70;58.30;;;;;;5012511;28;19909;-59
2021/04/10 03:34:39;;;;;;;;;;;12.70;58.40;;;;;;5024279;28;20278;-60
2021/04/10 03:37:04;;;;;;;;;;;12.70;58.40;;;;;;5024344;28;19939;-61
2021/04/10 03:39:30;;;;;;;;;;;12.70;58.50;;;;;;5021410;28;20012;-58
2021/04/10 03:41:56;;;;;;;;;;;12.70;58.50;;;;;;5023361;28;20276;-57
2021/04/10 03:44:21;;;;;;;;;;;12.70;58.60;;;;;;5022024;28;19979;-60
2021/04/10 03:46:47;;;;;;;;;;;12.60;58.60;;;;;;5011808;28;20368;-58
2021/04/10 03:49:12;;;;;;;;;;;12.60;58.60;;;;;;5010427;28;19924;-62
2021/04/10 03:51:38;;;;;;;;;;;12.60;58.70;;;;;;5034727;28;19917;-60
2021/04/10 03:54:04;;;;;;;;;;;12.60;58.70;;;;;;5019555;28;19917;-60
2021/04/10 03:56:29;;;;;;;;;;;12.60;58.80;;;;;;5017015;28;20471;-61
2021/04/10 03:58:55;;;;;;;;;;;12.60;58.80;;;;;;5027693;28;20237;-60
2021/04/10 04:01:20;;;;;;;;;;;12.60;58.90;;;;;;5029357;28;19967;-59
2021/04/10 04:03:46;;;;;;;;;;;12.60;58.90;;;;;;5029387;28;21457;-60
2021/04/10 04:06:11;;;;;;;;;;;12.60;58.90;;;;;;5005012;28;19913;-60
2021/04/10 04:08:37;;;;;;;;;;;12.60;59.00;;;;;;5010159;28;20530;-57
2021/04/10 04:11:02;;;;;;;;;;;12.60;59.00;;;;;;5006727;28;19913;-61
2021/04/10 04:13:28;;;;;;;;;;;12.60;59.00;;;;;;5019478;28;19918;-57
2021/04/10 04:15:53;;;;;;;;;;;12.60;59.20;;;;;;5018802;28;20290;-58
2021/04/10 04:18:18;;;;;;;;;;;12.50;59.10;;;;;;5017449;28;19917;-59
2021/04/10 04:20:44;;;;;;;;;;;12.50;59.20;;;;;;5035606;28;19957;-58
2021/04/10 04:23:09;;;;;;;;;;;12.50;59.20;;;;;;5030884;28;19920;-61
2021/04/10 04:25:35;;;;;;;;;;;12.50;59.30;;;;;;5017291;28;20297;-59
2021/04/10 04:28:00;;;;;;;;;;;12.50;59.30;;;;;;5020210;28;20003;-59
2021/04/10 04:30:26;;;;;;;;;;;12.50;59.50;;;;;;5019104;28;19941;-61
2021/04/10 04:32:51;;;;;;;;;;;12.60;59.60;;;;;;5020834;28;20426;-59
2021/04/10 04:35:17;;;;;;;;;;;12.50;59.50;;;;;;5019560;28;20025;-57
2021/04/10 04:37:42;;;;;;;;;;;12.50;59.60;;;;;;5018708;28;19921;-60
2021/04/10 04:40:08;;;;;;;;;;;12.50;59.80;;;;;;5039043;28;19939;-59
2021/04/10 04:42:34;;;;;;;;;;;12.50;59.90;;;;;;5032755;28;20280;-61
2021/04/10 04:44:59;;;;;;;;;;;12.40;60.00;;;;;;5018609;28;19913;-59
2021/04/10 04:47:24;;;;;;;;;;;12.50;60.00;;;;;;5014409;28;19914;-59
2021/04/10 04:49:50;;;;;;;;;;;12.40;60.10;;;;;;5023735;28;19909;-60
2021/04/10 04:52:15;;;;;;;;;;;12.40;60.10;;;;;;5004834;28;19920;-60
2021/04/10 04:54:41;;;;;;;;;;;12.40;60.20;;;;;;5012693;28;20446;-60
2021/04/10 04:57:06;;;;;;;;;;;12.40;60.30;;;;;;5010297;28;19918;-58
2021/04/10 04:59:32;;;;;;;;;;;12.40;60.30;;;;;;5024184;28;20284;-58
2021/04/10 05:01:57;;;;;;;;;;;12.40;60.30;;;;;;5014410;28;20154;-57
2021/04/10 05:04:23;;;;;;;;;;;12.40;60.40;;;;;;5007949;28;19917;-61
2021/04/10 05:06:48;;;;;;;;;;;12.40;60.50;;;;;;5007506;28;20332;-58
2021/04/10 05:09:14;;;;;;;;;;;12.40;60.70;;;;;;5015332;28;20009;-59
2021/04/10 05:11:39;;;;;;;;;;;12.40;60.60;;;;;;5001644;28;19917;-57
2021/04/10 05:14:05;;;;;;;;;;;12.40;60.70;;;;;;5023643;28;20006;-56
2021/04/10 05:16:30;;;;;;;;;;;12.40;60.80;;;;;;5009538;28;19917;-59
2021/04/10 05:18:56;;;;;;;;;;;12.40;60.80;;;;;;5009620;28;19910;-58
2021/04/10 05:21:23;;;;;;;;;;;12.40;60.90;;;;;;5015647;28;19983;-58
2021/04/10 05:23:48;;;;;;;;;;;12.40;60.90;;;;;;5004835;28;20388;-60
2021/04/10 05:26:14;;;;;;;;;;;12.40;60.80;;;;;;5037179;28;19917;-62
2021/04/10 05:28:39;;;;;;;;;;;12.40;61.00;;;;;;5020127;28;19922;-61
2021/04/10 05:31:04;;;;;;;;;;;12.40;61.00;;;;;;5015940;28;19929;-60
2021/04/10 05:33:30;;;;;;;;;;;12.40;61.10;;;;;;5016611;28;20324;-61
2021/04/10 05:35:56;;;;;;;;;;;12.40;61.30;;;;;;5049465;28;19921;-59
2021/04/10 05:38:21;;;;;;;;;;;12.40;61.40;;;;;;5018885;28;20242;-59
2021/04/10 05:40:47;;;;;;;;;;;12.40;61.50;;;;;;5004916;28;20443;-57
2021/04/10 05:43:12;;;;;;;;;;;12.30;61.40;;;;;;5036501;28;19914;-58
2021/04/10 05:45:38;;;;;;;;;;;12.40;61.90;;;;;;5002938;28;19914;-60
2021/04/10 05:48:03;;;;;;;;;;;12.40;61.90;;;;;;5010073;28;19918;-60
2021/04/10 05:50:29;;;;;;;;;;;12.40;61.90;;;;;;5018281;28;19924;-57
2021/04/10 05:52:54;;;;;;;;;;;12.40;62.10;;;;;;5011750;28;19914;-59
2021/04/10 05:55:20;;;;;;;;;;;12.40;62.20;;;;;;4999793;28;20005;-60
2021/04/10 05:57:45;;;;;;;;;;;12.40;62.20;;;;;;5014687;28;19917;-61
2021/04/10 06:00:11;;;;;;;;;;;12.40;62.30;;;;;;5028513;28;19909;-60
2021/04/10 06:02:36;;;;;;;;;;;12.40;62.30;;;;;;5007078;28;19917;-60
2021/04/10 06:05:02;;;;;;;;;;;12.40;62.40;;;;;;5006827;28;20270;-59
2021/04/10 06:07:28;;;;;;;;;;;12.40;62.70;;;;;;5005123;28;19917;-57
2021/04/10 06:09:53;;;;;;;;;;;12.40;62.90;;;;;;5011871;28;20332;-60
2021/04/10 06:12:18;;;;;;;;;;;12.30;62.90;;;;;;5022777;28;19913;-58
2021/04/10 06:14:44;;;;;;;;;;;12.30;62.90;;;;;;5009541;28;20045;-60
2021/04/10 06:17:10;;;;;;;;;;;12.30;63.00;;;;;;4999561;28;19922;-57
2021/04/10 06:19:35;;;;;;;;;;;12.30;63.10;;;;;;5016357;28;19917;-56
2021/04/10 06:22:00;;;;;;;;;;;12.40;63.20;;;;;;5041453;28;20331;-59
2021/04/10 06:24:26;;;;;;;;;;;12.30;63.30;;;;;;5032854;28;20020;-61
2021/04/10 06:26:51;;;;;;;;;;;12.30;63.40;;;;;;5005177;28;19924;-59
2021/04/10 06:29:17;;;;;;;;;;;12.30;63.40;;;;;;5018492;28;20404;-57
2021/04/10 06:31:42;;;;;;;;;;;12.30;63.60;;;;;;5008498;28;19963;-59
2021/04/10 06:34:08;;;;;;;;;;;12.30;63.50;;;;;;5026898;28;19905;-59
2021/04/10 06:36:34;;;;;;;;;;;12.30;63.50;;;;;;5015662;28;20011;-59
2021/04/10 06:38:59;;;;;;;;;;;12.30;63.60;;;;;;5018735;28;19932;-61
2021/04/10 06:41:25;;;;;;;;;;;12.30;63.80;;;;;;5000392;28;19917;-57
2021/04/10 06:43:50;;;;;;;;;;;12.30;63.80;;;;;;5023567;28;20353;-60
2021/04/10 06:46:16;;;;;;;;;;;12.30;63.90;;;;;;5020019;28;19921;-60
2021/04/10 06:48:43;;;;;;;;;;;12.30;63.90;;;;;;5030996;28;19957;-61
2021/04/10 06:51:09;;;;;;;;;;;12.30;64.00;;;;;;5023919;28;20062;-60
2021/04/10 06:53:46;;;;;;;;;;;12.30;64.10;;;;;;5029374;28;19941;-58
2021/04/10 06:56:12;;;;;;;;;;;12.30;64.20;;;;;;5020715;28;19917;-60
2021/04/10 06:58:57;;;;;;;;;;;12.30;64.50;;;;;;5023441;28;19920;-58
2021/04/10 07:01:22;;;;;;;;;;;12.30;64.30;;;;;;5003799;28;19918;-59
2021/04/10 07:03:51;;;;;;;;;;;12.30;64.40;;;;;;5013595;28;19909;-56
2021/04/10 07:06:17;;;;;;;;;;;12.30;64.60;;;;;;5007584;28;19949;-57
2021/04/10 07:08:43;;;;;;;;;;;12.30;64.90;;;;;;5023600;28;19976;-57
2021/04/10 07:11:08;;;;;;;;;;;12.30;65.10;;;;;;5027447;28;19921;-57
2021/04/10 07:13:34;;;;;;;;;;;12.30;65.50;;;;;;5025089;28;19909;-62
2021/04/10 07:16:02;;;;;;;;;;;12.30;65.80;;;;;;5009781;28;19966;-59
2021/04/10 07:18:31;;;;;;;;;;;12.30;66.20;;;;;;5025159;28;20038;-59
2021/04/10 07:21:15;;;;;;;;;;;12.30;66.50;;;;;;5034312;28;19914;-56
2021/04/10 07:23:51;;;;;;;;;;;12.40;66.50;;;;;;5012258;28;19921;-59
2021/04/10 07:26:18;;;;;;;;;;;12.40;66.80;;;;;;5014602;28;19916;-58
2021/04/10 07:28:43;;;;;;;;;;;12.30;66.90;;;;;;5027136;28;19917;-57
2021/04/10 07:31:15;;;;;;;;;;;12.40;67.10;;;;;;5019877;28;19913;-60
2021/04/10 07:33:42;;;;;;;;;;;12.30;67.00;;;;;;5003554;28;19975;-56
2021/04/10 07:36:09;;;;;;;;;;;12.40;67.10;;;;;;5034483;28;19923;-59
2021/04/10 07:38:35;;;;;;;;;;;12.40;67.80;;;;;;5007214;28;20279;-59
2021/04/10 07:41:01;;;;;;;;;;;12.30;66.80;;;;;;5038030;28;20323;-59
2021/04/10 07:43:28;;;;;;;;;;;12.40;67.00;;;;;;5007294;28;19918;-62
2021/04/10 07:46:09;;;;;;;;;;;12.40;67.00;;;;;;5015628;28;20485;-61
2021/04/10 07:48:35;;;;;;;;;;;12.40;67.00;;;;;;5029562;28;19917;-62
2021/04/10 07:51:00;;;;;;;;;;;12.40;67.20;;;;;;5013045;28;20015;-61
2021/04/10 07:53:26;;;;;;;;;;;12.40;67.20;;;;;;5015844;28;19917;-60
2021/04/10 07:55:52;;;;;;;;;;;12.40;66.80;;;;;;5021820;28;19921;-59
2021/04/10 07:58:20;;;;;;;;;;;12.40;66.60;;;;;;4999519;28;19921;-60
2021/04/10 08:00:46;;;;;;;;;;;12.50;66.50;;;;;;4997741;28;19942;-59
2021/04/10 08:03:21;;;;;;;;;;;12.50;66.40;;;;;;5022404;28;19921;-58
2021/04/10 08:05:46;;;;;;;;;;;12.50;67.10;;;;;;5002821;28;21864;-62
2021/04/10 08:08:17;;;;;;;;;;;12.50;68.30;;;;;;5024259;28;19918;-59
2021/04/10 08:10:42;;;;;;;;;;;12.50;68.50;;;;;;5010548;28;19995;-57
2021/04/10 08:13:08;;;;;;;;;;;12.50;68.20;;;;;;5023997;28;19910;-61
2021/04/10 08:15:33;;;;;;;;;;;12.60;68.20;;;;;;5006899;28;19921;-59
2021/04/10 08:17:59;;;;;;;;;;;12.60;68.40;;;;;;5022808;28;19924;-57
2021/04/10 08:20:25;;;;;;;;;;;12.60;68.40;;;;;;5009379;28;19937;-61
2021/04/10 08:22:51;;;;;;;;;;;12.60;68.30;;;;;;5023765;28;19967;-60
2021/04/10 08:25:29;;;;;;;;;;;12.60;67.80;;;;;;5027304;28;19917;-61
2021/04/10 08:27:55;;;;;;;;;;;12.60;68.50;;;;;;5049731;28;19914;-60
2021/04/10 08:30:20;;;;;;;;;;;12.70;68.90;;;;;;5009044;28;19928;-58
2021/04/10 08:32:46;;;;;;;;;;;12.70;69.30;;;;;;5022987;28;19924;-61
2021/04/10 08:35:11;;;;;;;;;;;12.70;69.40;;;;;;5009133;28;20337;-59
2021/04/10 08:37:37;;;;;;;;;;;12.70;69.10;;;;;;5026945;28;19922;-59
2021/04/10 08:40:03;;;;;;;;;;;12.70;69.00;;;;;;5012960;28;19922;-58
2021/04/10 08:42:28;;;;;;;;;;;12.80;68.90;;;;;;5024889;28;19914;-60
2021/04/10 08:44:55;;;;;;;;;;;12.80;68.60;;;;;;5023514;28;19914;-59
2021/04/10 08:47:20;;;;;;;;;;;12.80;68.10;;;;;;5043469;28;19975;-61
2021/04/10 08:49:48;;;;;;;;;;;12.80;68.40;;;;;;5022550;28;20174;-60
2021/04/10 08:52:21;;;;;;;;;;;12.90;68.80;;;;;;5025527;28;19913;-60
2021/04/10 08:54:46;;;;;;;;;;;12.90;68.20;;;;;;5022047;28;19917;-59
2021/04/10 08:57:13;;;;;;;;;;;12.90;68.80;;;;;;5025681;28;19917;-58
2021/04/10 08:59:40;;;;;;;;;;;12.90;68.40;;;;;;5025015;28;20476;-58
2021/04/10 09:02:05;;;;;;;;;;;13.00;68.40;;;;;;5027987;28;19917;-61
2021/04/10 09:04:51;;;;;;;;;;;13.00;68.40;;;;;;5008209;28;19914;-57
2021/04/10 09:07:16;;;;;;;;;;;13.10;68.20;;;;;;5015502;28;20269;-61
2021/04/10 09:09:45;;;;;;;;;;;13.00;68.80;;;;;;5026178;28;19917;-61
2021/04/10 09:12:22;;;;;;;;;;;13.00;68.20;;;;;;5024348;28;20437;-59
2021/04/10 09:14:47;;;;;;;;;;;13.10;68.20;;;;;;5020353;28;19922;-61
2021/04/10 09:17:13;;;;;;;;;;;13.10;67.80;;;;;;5022854;28;20792;-59
2021/04/10 09:19:38;;;;;;;;;;;13.10;68.50;;;;;;5005581;28;19967;-58
2021/04/10 09:22:04;;;;;;;;;;;13.20;68.60;;;;;;5005504;28;20487;-59
2021/04/10 09:24:51;;;;;;;;;;;13.20;68.80;;;;;;5023377;28;19988;-60
2021/04/10 09:27:20;;;;;;;;;;;13.20;68.70;;;;;;5002718;28;20317;-61
2021/04/10 09:29:56;;;;;;;;;;;13.30;68.70;;;;;;5018919;28;19921;-60
2021/04/10 09:32:36;;;;;;;;;;;13.30;68.70;;;;;;5019441;28;19964;-60
2021/04/10 09:35:17;;;;;;;;;;;13.40;68.50;;;;;;5003084;28;19917;-58
2021/04/10 09:37:43;;;;;;;;;;;13.40;68.60;;;;;;5005605;28;20453;-60
2021/04/10 09:40:10;;;;;;;;;;;13.50;68.70;;;;;;5008026;28;19919;-62
2021/04/10 09:42:39;;;;;;;;;;;13.50;68.80;;;;;;5005981;28;19988;-60
2021/04/10 09:45:17;;;;;;;;;;;13.80;68.80;;;;;;5007735;28;19917;-60
2021/04/10 09:47:52;;;;;;;;;;;13.50;68.60;;;;;;5018697;28;19936;-59
2021/04/10 09:50:20;;;;;;;;;;;13.50;68.40;;;;;;4998204;28;20636;-58
2021/04/10 09:52:51;;;;;;;;;;;13.60;68.40;;;;;;5012916;28;20017;-60
2021/04/10 09:55:20;;;;;;;;;;;13.60;68.10;;;;;;5023902;28;20545;-62
2021/04/10 09:57:55;;;;;;;;;;;13.60;68.20;;;;;;5005701;28;20388;-59
2021/04/10 10:00:33;;;;;;;;;;;13.60;68.00;;;;;;5003409;28;20020;-59
2021/04/10 10:02:59;;;;;;;;;;;13.70;68.70;;;;;;5004489;28;20416;-58
2021/04/10 10:05:35;;;;;;;;;;;13.70;68.00;;;;;;5014890;28;19913;-60
2021/04/10 10:08:04;;;;;;;;;;;13.70;67.90;;;;;;5015569;28;19932;-59
2021/04/10 10:10:33;;;;;;;;;;;13.80;67.90;;;;;;5042601;28;19918;-57
2021/04/10 10:13:05;;;;;;;;;;;13.80;67.80;;;;;;5023659;28;19920;-57
2021/04/10 10:15:30;;;;;;;;;;;13.80;67.80;;;;;;4999336;28;19917;-60
2021/04/10 10:17:56;;;;;;;;;;;13.90;67.80;;;;;;5021094;28;20039;-58
2021/04/10 10:20:21;;;;;;;;;;;13.90;67.70;;;;;;5020941;28;20449;-58
2021/04/10 10:22:47;;;;;;;;;;;13.90;68.10;;;;;;5016031;28;19921;-62
2021/04/10 10:25:13;;;;;;;;;;;14.00;67.40;;;;;;5005019;28;19969;-60
2021/04/10 10:27:42;;;;;;;;;;;14.10;67.20;;;;;;5008775;28;19917;-58
2021/04/10 10:30:20;;;;;;;;;;;14.10;67.00;;;;;;5006251;28;19917;-59
2021/04/10 10:32:45;;;;;;;;;;;14.10;66.80;;;;;;5002654;28;19944;-58
2021/04/10 10:35:12;;;;;;;;;;;14.10;66.60;;;;;;5013551;28;19917;-60
2021/04/10 10:37:37;;;;;;;;;;;14.20;66.60;;;;;;4998096;28;20400;-58
2021/04/10 10:40:03;;;;;;;;;;;14.20;66.50;;;;;;5040583;28;19914;-58
2021/04/10 10:42:29;;;;;;;;;;;14.20;66.40;;;;;;5025022;28;19920;-58
2021/04/10 10:44:54;;;;;;;;;;;14.20;66.40;;;;;;5021674;28;19922;-60
2021/04/10 10:47:24;;;;;;;;;;;14.30;66.40;;;;;;5012070;28;19921;-57
2021/04/10 10:49:50;;;;;;;;;;;14.30;66.00;;;;;;5043455;28;20033;-58
2021/04/10 10:52:16;;;;;;;;;;;14.30;65.90;;;;;;5026767;28;20468;-58
2021/04/10 10:54:42;;;;;;;;;;;14.40;65.80;;;;;;5017591;28;19924;-59
2021/04/10 10:57:11;;;;;;;;;;;14.40;65.60;;;;;;5015790;28;20225;-59
2021/04/10 10:59:37;;;;;;;;;;;14.40;65.30;;;;;;5014029;28;20381;-58
2021/04/10 11:02:02;;;;;;;;;;;14.50;65.30;;;;;;4997090;28;19921;-57
2021/04/10 11:04:28;;;;;;;;;;;14.60;65.00;;;;;;5007556;28;19928;-58
2021/04/10 11:06:54;;;;;;;;;;;14.60;64.80;;;;;;5028905;28;19913;-59
2021/04/10 11:09:23;;;;;;;;;;;14.60;64.80;;;;;;5018010;28;19910;-60
2021/04/10 11:11:49;;;;;;;;;;;14.70;64.70;;;;;;5006928;28;20516;-61
2021/04/10 11:14:18;;;;;;;;;;;14.70;64.40;;;;;;5021212;28;20285;-58
2021/04/10 11:16:44;;;;;;;;;;;14.80;64.40;;;;;;5012515;28;19913;-61
2021/04/10 11:19:09;;;;;;;;;;;14.80;64.50;;;;;;5038856;28;19918;-60
2021/04/10 11:21:35;;;;;;;;;;;14.80;64.40;;;;;;5020192;28;20385;-62
2021/04/10 11:24:03;;;;;;;;;;;14.90;64.50;;;;;;5004413;28;19962;-59
2021/04/10 11:26:35;;;;;;;;;;;14.90;64.20;;;;;;5016710;28;19913;-61
2021/04/10 11:29:14;;;;;;;;;;;15.00;64.20;;;;;;5016075;28;19910;-58
2021/04/10 11:31:39;;;;;;;;;;;15.00;63.90;;;;;;5026556;28;19957;-61
2021/04/10 11:34:23;;;;;;;;;;;15.10;63.70;;;;;;5007151;28;20007;-59
2021/04/10 11:36:49;;;;;;;;;;;15.10;63.40;;;;;;5003266;28;19953;-59
2021/04/10 11:39:15;;;;;;;;;;;15.20;63.40;;;;;;5007799;28;19921;-61
2021/04/10 11:41:44;;;;;;;;;;;15.30;63.10;;;;;;5002190;28;19974;-60
2021/04/10 11:44:09;;;;;;;;;;;15.30;62.80;;;;;;5004518;28;19924;-60
2021/04/10 11:46:34;;;;;;;;;;;15.30;62.30;;;;;;5001928;28;19921;-61
2021/04/10 11:49:00;;;;;;;;;;;15.30;62.20;;;;;;5017680;28;20009;-58
2021/04/10 11:51:26;;;;;;;;;;;15.40;62.20;;;;;;4994647;28;20229;-60
2021/04/10 11:53:52;;;;;;;;;;;15.50;62.00;;;;;;5021419;28;20320;-58
2021/04/10 11:56:25;;;;;;;;;;;15.50;62.00;;;;;;5004154;28;19918;-58
2021/04/10 11:59:00;;;;;;;;;;;15.50;61.80;;;;;;5010159;28;20076;-61
2021/04/10 12:01:26;;;;;;;;;;;15.60;61.70;;;;;;5003127;28;19920;-57
2021/04/10 12:03:55;;;;;;;;;;;15.60;61.10;;;;;;5029281;28;20280;-58
2021/04/10 12:06:27;;;;;;;;;;;15.60;60.40;;;;;;5015734;28;20419;-59
2021/04/10 12:08:52;;;;;;;;;;;15.70;60.10;;;;;;5010546;28;20320;-59
2021/04/10 12:11:18;;;;;;;;;;;15.80;59.90;;;;;;5001031;28;20013;-57
2021/04/10 12:13:43;;;;;;;;;;;15.80;59.70;;;;;;5016131;28;19913;-57
2021/04/10 12:16:09;;;;;;;;;;;15.90;59.40;;;;;;5009219;28;20293;-57
2021/04/10 12:18:34;;;;;;;;;;;15.90;59.00;;;;;;5006874;28;19917;-60
2021/04/10 12:20:59;;;;;;;;;;;16.00;59.00;;;;;;5006582;28;19909;-57
2021/04/10 12:23:25;;;;;;;;;;;16.00;59.00;;;;;;5004108;28;19924;-60
2021/04/10 12:25:50;;;;;;;;;;;16.00;58.90;;;;;;5018556;28;19921;-61
2021/04/10 12:28:16;;;;;;;;;;;16.10;58.90;;;;;;5007638;28;19913;-60
2021/04/10 12:30:41;;;;;;;;;;;16.10;58.80;;;;;;5001357;28;19960;-61
2021/04/10 12:33:07;;;;;;;;;;;16.20;58.80;;;;;;5006279;28;19921;-57
2021/04/10 12:35:32;;;;;;;;;;;16.20;58.70;;;;;;5016180;28;19917;-60
2021/04/10 12:37:58;;;;;;;;;;;16.30;58.60;;;;;;5009382;28;19965;-61
2021/04/10 12:40:23;;;;;;;;;;;16.30;58.50;;;;;;5008169;28;20372;-57
2021/04/10 12:42:49;;;;;;;;;;;16.30;58.20;;;;;;4995158;28;20007;-59
2021/04/10 12:45:14;;;;;;;;;;;16.40;58.70;;;;;;5008417;28;19913;-58
2021/04/10 12:47:40;;;;;;;;;;;16.40;58.60;;;;;;5022027;28;19980;-58
2021/04/10 12:50:06;;;;;;;;;;;16.50;58.80;;;;;;5005598;28;19918;-60
2021/04/10 12:52:31;;;;;;;;;;;16.50;58.80;;;;;;5051718;28;19920;-59
2021/04/10 12:54:57;;;;;;;;;;;16.50;58.80;;;;;;5009732;28;19916;-59
2021/04/10 12:57:23;;;;;;;;;;;16.50;58.80;;;;;;5018911;28;19917;-60
2021/04/10 12:59:48;;;;;;;;;;;16.60;58.60;;;;;;5005198;28;20004;-59
2021/04/10 13:02:14;;;;;;;;;;;16.60;58.50;;;;;;5014003;28;19993;-60
2021/04/10 13:04:39;;;;;;;;;;;16.70;58.30;;;;;;5012819;28;19910;-59
2021/04/10 13:07:05;;;;;;;;;;;16.70;58.40;;;;;;5025895;28;19914;-61
2021/04/10 13:09:30;;;;;;;;;;;16.80;58.40;;;;;;5000719;28;20471;-58
2021/04/10 13:11:56;;;;;;;;;;;16.80;58.20;;;;;;5001511;28;20433;-62
2021/04/10 13:14:21;;;;;;;;;;;16.90;58.00;;;;;;5004750;28;19937;-60
2021/04/10 13:16:47;;;;;;;;;;;16.90;58.10;;;;;;5000707;28;20649;-63
2021/04/10 13:19:13;;;;;;;;;;;17.00;58.00;;;;;;5005246;28;20012;-59
2021/04/10 13:21:38;;;;;;;;;;;17.10;57.90;;;;;;5005541;28;19929;-58
2021/04/10 13:24:04;;;;;;;;;;;17.10;57.70;;;;;;5004841;28;20332;-61
2021/04/10 13:26:30;;;;;;;;;;;17.20;57.90;;;;;;5015287;28;19924;-58
2021/04/10 13:28:56;;;;;;;;;;;17.30;57.90;;;;;;5025628;28;19913;-60
2021/04/10 13:31:21;;;;;;;;;;;17.30;57.80;;;;;;5027760;28;19924;-61
2021/04/10 13:33:47;;;;;;;;;;;17.40;57.50;;;;;;5014616;28;20358;-61
2021/04/10 13:36:12;;;;;;;;;;;17.40;57.40;;;;;;5012040;28;20292;-60
2021/04/10 13:38:37;;;;;;;;;;;17.50;57.50;;;;;;5007609;28;19976;-61
2021/04/10 13:41:03;;;;;;;;;;;17.50;57.20;;;;;;5018342;28;19985;-59
2021/04/10 13:43:29;;;;;;;;;;;17.60;56.90;;;;;;5014515;28;20404;-58
2021/04/10 13:45:54;;;;;;;;;;;17.60;56.80;;;;;;5013589;28;19928;-59
2021/04/10 13:48:20;;;;;;;;;;;17.70;56.70;;;;;;5024816;28;19913;-57
2021/04/10 13:50:47;;;;;;;;;;;17.80;56.70;;;;;;4998710;28;19940;-58
2021/04/10 13:53:12;;;;;;;;;;;17.80;56.50;;;;;;5030934;28;19935;-58
2021/04/10 13:55:38;;;;;;;;;;;17.90;56.40;;;;;;5008579;28;20380;-62
2021/04/10 13:58:03;;;;;;;;;;;17.90;56.30;;;;;;5025237;28;19979;-57
2021/04/10 14:00:29;;;;;;;;;;;18.00;56.30;;;;;;5005759;28;19920;-60
2021/04/10 14:02:54;;;;;;;;;;;18.00;56.10;;;;;;4998458;28;19916;-60
2021/04/10 14:05:20;;;;;;;;;;;18.10;56.00;;;;;;5011735;28;19913;-58
2021/04/10 14:07:45;;;;;;;;;;;18.20;55.80;;;;;;5032776;28;19913;-57
2021/04/10 14:10:12;;;;;;;;;;;18.20;55.60;;;;;;5009874;28;19964;-60
2021/04/10 14:12:38;;;;;;;;;;;18.30;55.70;;;;;;5017439;28;20073;-60
2021/04/10 14:15:04;;;;;;;;;;;18.30;55.70;;;;;;5011068;28;19967;-58